sensor_id;sensor_type;location;lat;lon;timestamp;P1;durP1;ratioP1;P2;durP2;ratioP2
15063;SDS011;7631;52.088;5.088;2023-03-14T00:00:30;5.27;;;2.20;;
15063;SDS011;7631;52.088;5.088;2023-03-14T00:02:55;7.67;;;2.77;;
15063;SDS011;7631;52.088;5.088;2023-03-14T00:05:20;7.33;;;2.50;;
15063;SDS011;7631;52.088;5.088;2023-03-14T00:07:46;5.20;;;2.17;;
15063;SDS011;7631;52.088;5.088;2023-03-14T00:10:12;6.00;;;2.80;;
15063;SDS011;7631;52.088;5.088;2023-03-14T00:12:38;6.80;;;2.50;;
15063;SDS011;7631;52.088;5.088;2023-03-14T00:15:03;4.47;;;2.37;;
15063;SDS011;7631;52.088;5.088;2023-03-14T00:17:29;6.80;;;2.70;;
15063;SDS011;7631;52.088;5.088;2023-03-14T00:19:55;4.53;;;2.30;;
15063;SDS011;7631;52.088;5.088;2023-03-14T00:22:21;6.90;;;2.77;;
15063;SDS011;7631;52.088;5.088;2023-03-14T00:24:46;6.53;;;2.60;;
15063;SDS011;7631;52.088;5.088;2023-03-14T00:27:12;7.20;;;2.53;;
15063;SDS011;7631;52.088;5.088;2023-03-14T00:29:37;6.37;;;2.40;;
15063;SDS011;7631;52.088;5.088;2023-03-14T00:32:02;6.67;;;2.90;;
15063;SDS011;7631;52.088;5.088;2023-03-14T00:34:31;7.93;;;2.80;;
15063;SDS011;7631;52.088;5.088;2023-03-14T00:36:56;5.77;;;2.50;;
15063;SDS011;7631;52.088;5.088;2023-03-14T00:39:22;6.17;;;2.57;;
15063;SDS011;7631;52.088;5.088;2023-03-14T00:41:47;6.47;;;2.60;;
15063;SDS011;7631;52.088;5.088;2023-03-14T00:44:12;7.13;;;2.77;;
15063;SDS011;7631;52.088;5.088;2023-03-14T00:46:37;6.10;;;2.87;;
15063;SDS011;7631;52.088;5.088;2023-03-14T00:49:02;5.23;;;2.30;;
15063;SDS011;7631;52.088;5.088;2023-03-14T00:51:28;7.87;;;2.67;;
15063;SDS011;7631;52.088;5.088;2023-03-14T00:53:53;5.83;;;2.30;;
15063;SDS011;7631;52.088;5.088;2023-03-14T00:56:18;4.87;;;2.23;;
15063;SDS011;7631;52.088;5.088;2023-03-14T00:58:43;5.37;;;2.47;;
15063;SDS011;7631;52.088;5.088;2023-03-14T01:01:10;5.97;;;2.30;;
15063;SDS011;7631;52.088;5.088;2023-03-14T01:03:36;6.30;;;2.47;;
15063;SDS011;7631;52.088;5.088;2023-03-14T01:06:11;5.67;;;2.30;;
15063;SDS011;7631;52.088;5.088;2023-03-14T01:08:36;5.93;;;2.43;;
15063;SDS011;7631;52.088;5.088;2023-03-14T01:11:06;4.03;;;2.03;;
15063;SDS011;7631;52.088;5.088;2023-03-14T01:13:31;5.13;;;2.73;;
15063;SDS011;7631;52.088;5.088;2023-03-14T01:16:00;6.23;;;2.30;;
15063;SDS011;7631;52.088;5.088;2023-03-14T01:18:25;5.93;;;2.50;;
15063;SDS011;7631;52.088;5.088;2023-03-14T01:20:51;5.27;;;2.30;;
15063;SDS011;7631;52.088;5.088;2023-03-14T01:23:16;5.07;;;2.20;;
15063;SDS011;7631;52.088;5.088;2023-03-14T01:25:41;4.93;;;2.40;;
15063;SDS011;7631;52.088;5.088;2023-03-14T01:28:06;3.83;;;2.40;;
15063;SDS011;7631;52.088;5.088;2023-03-14T01:30:32;6.27;;;2.23;;
15063;SDS011;7631;52.088;5.088;2023-03-14T01:32:57;5.13;;;2.17;;
15063;SDS011;7631;52.088;5.088;2023-03-14T01:35:22;5.77;;;2.47;;
15063;SDS011;7631;52.088;5.088;2023-03-14T01:37:48;5.73;;;2.30;;
15063;SDS011;7631;52.088;5.088;2023-03-14T01:40:13;5.57;;;2.43;;
15063;SDS011;7631;52.088;5.088;2023-03-14T01:42:44;3.90;;;2.00;;
15063;SDS011;7631;52.088;5.088;2023-03-14T01:47:53;4.83;;;1.70;;
15063;SDS011;7631;52.088;5.088;2023-03-14T01:50:18;5.57;;;2.20;;
15063;SDS011;7631;52.088;5.088;2023-03-14T01:52:44;3.37;;;1.80;;
15063;SDS011;7631;52.088;5.088;2023-03-14T01:55:19;3.80;;;2.17;;
15063;SDS011;7631;52.088;5.088;2023-03-14T01:57:50;6.50;;;2.40;;
15063;SDS011;7631;52.088;5.088;2023-03-14T02:00:21;4.23;;;2.13;;
15063;SDS011;7631;52.088;5.088;2023-03-14T02:02:48;4.27;;;1.90;;
15063;SDS011;7631;52.088;5.088;2023-03-14T02:05:16;6.93;;;2.43;;
15063;SDS011;7631;52.088;5.088;2023-03-14T02:07:55;3.93;;;2.10;;
15063;SDS011;7631;52.088;5.088;2023-03-14T02:10:22;5.17;;;1.93;;
15063;SDS011;7631;52.088;5.088;2023-03-14T02:12:49;3.60;;;2.17;;
15063;SDS011;7631;52.088;5.088;2023-03-14T02:15:14;4.33;;;2.20;;
15063;SDS011;7631;52.088;5.088;2023-03-14T02:17:40;3.73;;;1.97;;
15063;SDS011;7631;52.088;5.088;2023-03-14T02:20:09;4.77;;;2.03;;
15063;SDS011;7631;52.088;5.088;2023-03-14T02:22:37;4.37;;;2.13;;
15063;SDS011;7631;52.088;5.088;2023-03-14T02:27:34;4.00;;;2.03;;
15063;SDS011;7631;52.088;5.088;2023-03-14T02:30:01;3.83;;;1.97;;
15063;SDS011;7631;52.088;5.088;2023-03-14T02:32:27;4.93;;;2.00;;
15063;SDS011;7631;52.088;5.088;2023-03-14T02:34:54;4.37;;;2.10;;
15063;SDS011;7631;52.088;5.088;2023-03-14T02:37:20;5.40;;;1.90;;
15063;SDS011;7631;52.088;5.088;2023-03-14T02:39:47;4.20;;;2.00;;
15063;SDS011;7631;52.088;5.088;2023-03-14T02:42:14;3.43;;;1.77;;
15063;SDS011;7631;52.088;5.088;2023-03-14T02:44:49;2.80;;;1.83;;
15063;SDS011;7631;52.088;5.088;2023-03-14T02:47:15;4.87;;;2.03;;
15063;SDS011;7631;52.088;5.088;2023-03-14T02:49:40;4.27;;;1.87;;
15063;SDS011;7631;52.088;5.088;2023-03-14T02:52:06;4.03;;;1.70;;
15063;SDS011;7631;52.088;5.088;2023-03-14T02:54:31;4.77;;;1.83;;
15063;SDS011;7631;52.088;5.088;2023-03-14T02:56:56;3.67;;;2.03;;
15063;SDS011;7631;52.088;5.088;2023-03-14T02:59:21;4.23;;;1.60;;
15063;SDS011;7631;52.088;5.088;2023-03-14T03:01:46;4.17;;;1.63;;
15063;SDS011;7631;52.088;5.088;2023-03-14T03:04:12;4.07;;;1.43;;
15063;SDS011;7631;52.088;5.088;2023-03-14T03:06:37;3.07;;;1.50;;
15063;SDS011;7631;52.088;5.088;2023-03-14T03:09:02;3.10;;;1.53;;
15063;SDS011;7631;52.088;5.088;2023-03-14T03:11:27;2.20;;;1.40;;
15063;SDS011;7631;52.088;5.088;2023-03-14T03:13:53;3.90;;;1.57;;
15063;SDS011;7631;52.088;5.088;2023-03-14T03:16:18;3.30;;;1.40;;
15063;SDS011;7631;52.088;5.088;2023-03-14T03:18:43;4.20;;;1.60;;
15063;SDS011;7631;52.088;5.088;2023-03-14T03:21:08;4.37;;;1.60;;
15063;SDS011;7631;52.088;5.088;2023-03-14T03:23:34;4.30;;;1.70;;
15063;SDS011;7631;52.088;5.088;2023-03-14T03:25:59;4.23;;;1.57;;
15063;SDS011;7631;52.088;5.088;2023-03-14T03:28:25;4.60;;;1.73;;
15063;SDS011;7631;52.088;5.088;2023-03-14T03:30:50;3.33;;;1.43;;
15063;SDS011;7631;52.088;5.088;2023-03-14T03:33:15;4.27;;;1.60;;
15063;SDS011;7631;52.088;5.088;2023-03-14T03:35:50;3.93;;;1.60;;
15063;SDS011;7631;52.088;5.088;2023-03-14T03:38:15;4.40;;;1.67;;
15063;SDS011;7631;52.088;5.088;2023-03-14T03:40:40;4.80;;;1.63;;
15063;SDS011;7631;52.088;5.088;2023-03-14T03:43:06;2.37;;;1.30;;
15063;SDS011;7631;52.088;5.088;2023-03-14T03:45:31;3.87;;;1.60;;
15063;SDS011;7631;52.088;5.088;2023-03-14T03:47:56;3.37;;;1.60;;
15063;SDS011;7631;52.088;5.088;2023-03-14T03:50:22;4.63;;;1.57;;
15063;SDS011;7631;52.088;5.088;2023-03-14T03:52:47;3.90;;;1.60;;
15063;SDS011;7631;52.088;5.088;2023-03-14T03:55:12;4.97;;;1.77;;
15063;SDS011;7631;52.088;5.088;2023-03-14T03:57:37;3.40;;;1.60;;
15063;SDS011;7631;52.088;5.088;2023-03-14T04:00:03;3.13;;;1.40;;
15063;SDS011;7631;52.088;5.088;2023-03-14T04:02:29;5.00;;;1.90;;
15063;SDS011;7631;52.088;5.088;2023-03-14T04:04:55;4.07;;;1.53;;
15063;SDS011;7631;52.088;5.088;2023-03-14T04:07:20;3.37;;;1.53;;
15063;SDS011;7631;52.088;5.088;2023-03-14T04:09:45;3.50;;;1.77;;
15063;SDS011;7631;52.088;5.088;2023-03-14T04:12:10;4.57;;;1.87;;
15063;SDS011;7631;52.088;5.088;2023-03-14T04:14:36;4.80;;;2.00;;
15063;SDS011;7631;52.088;5.088;2023-03-14T04:17:01;4.00;;;1.27;;
15063;SDS011;7631;52.088;5.088;2023-03-14T04:19:26;3.77;;;1.60;;
15063;SDS011;7631;52.088;5.088;2023-03-14T04:21:51;3.90;;;1.60;;
15063;SDS011;7631;52.088;5.088;2023-03-14T04:24:17;4.10;;;1.70;;
15063;SDS011;7631;52.088;5.088;2023-03-14T04:26:42;4.27;;;1.77;;
15063;SDS011;7631;52.088;5.088;2023-03-14T04:29:07;3.67;;;1.30;;
15063;SDS011;7631;52.088;5.088;2023-03-14T04:31:32;4.73;;;1.80;;
15063;SDS011;7631;52.088;5.088;2023-03-14T04:33:57;3.60;;;1.50;;
15063;SDS011;7631;52.088;5.088;2023-03-14T04:36:23;6.30;;;2.10;;
15063;SDS011;7631;52.088;5.088;2023-03-14T04:38:48;3.77;;;1.50;;
15063;SDS011;7631;52.088;5.088;2023-03-14T04:41:13;4.17;;;1.70;;
15063;SDS011;7631;52.088;5.088;2023-03-14T04:43:38;3.47;;;1.67;;
15063;SDS011;7631;52.088;5.088;2023-03-14T04:46:03;6.00;;;1.93;;
15063;SDS011;7631;52.088;5.088;2023-03-14T04:48:29;5.07;;;1.70;;
15063;SDS011;7631;52.088;5.088;2023-03-14T04:50:54;3.13;;;1.40;;
15063;SDS011;7631;52.088;5.088;2023-03-14T04:53:20;4.50;;;1.33;;
15063;SDS011;7631;52.088;5.088;2023-03-14T04:55:49;3.57;;;1.70;;
15063;SDS011;7631;52.088;5.088;2023-03-14T04:58:14;4.67;;;1.67;;
15063;SDS011;7631;52.088;5.088;2023-03-14T05:00:39;3.63;;;1.70;;
15063;SDS011;7631;52.088;5.088;2023-03-14T05:03:05;3.43;;;1.60;;
15063;SDS011;7631;52.088;5.088;2023-03-14T05:05:30;4.83;;;1.67;;
15063;SDS011;7631;52.088;5.088;2023-03-14T05:07:55;5.07;;;2.00;;
15063;SDS011;7631;52.088;5.088;2023-03-14T05:10:20;3.27;;;1.43;;
15063;SDS011;7631;52.088;5.088;2023-03-14T05:12:45;4.60;;;1.77;;
15063;SDS011;7631;52.088;5.088;2023-03-14T05:15:11;4.43;;;1.43;;
15063;SDS011;7631;52.088;5.088;2023-03-14T05:17:36;4.73;;;1.30;;
15063;SDS011;7631;52.088;5.088;2023-03-14T05:20:01;3.57;;;1.37;;
15063;SDS011;7631;52.088;5.088;2023-03-14T05:22:32;3.77;;;1.20;;
15063;SDS011;7631;52.088;5.088;2023-03-14T05:24:57;3.57;;;1.80;;
15063;SDS011;7631;52.088;5.088;2023-03-14T05:27:23;3.27;;;1.33;;
15063;SDS011;7631;52.088;5.088;2023-03-14T05:29:49;3.40;;;1.60;;
15063;SDS011;7631;52.088;5.088;2023-03-14T05:32:14;2.27;;;1.20;;
15063;SDS011;7631;52.088;5.088;2023-03-14T05:34:39;5.23;;;1.77;;
15063;SDS011;7631;52.088;5.088;2023-03-14T05:37:04;3.53;;;1.80;;
15063;SDS011;7631;52.088;5.088;2023-03-14T05:39:29;4.63;;;1.77;;
15063;SDS011;7631;52.088;5.088;2023-03-14T05:41:55;2.20;;;1.30;;
15063;SDS011;7631;52.088;5.088;2023-03-14T05:44:20;2.93;;;1.33;;
15063;SDS011;7631;52.088;5.088;2023-03-14T05:46:46;4.53;;;1.60;;
15063;SDS011;7631;52.088;5.088;2023-03-14T05:49:11;6.03;;;1.83;;
15063;SDS011;7631;52.088;5.088;2023-03-14T05:51:36;3.40;;;1.70;;
15063;SDS011;7631;52.088;5.088;2023-03-14T05:54:01;2.87;;;1.27;;
15063;SDS011;7631;52.088;5.088;2023-03-14T05:56:27;3.73;;;1.60;;
15063;SDS011;7631;52.088;5.088;2023-03-14T05:58:52;3.07;;;1.50;;
15063;SDS011;7631;52.088;5.088;2023-03-14T06:01:17;3.40;;;1.63;;
15063;SDS011;7631;52.088;5.088;2023-03-14T06:03:42;3.80;;;1.77;;
15063;SDS011;7631;52.088;5.088;2023-03-14T06:06:07;3.73;;;1.80;;
15063;SDS011;7631;52.088;5.088;2023-03-14T06:08:33;3.00;;;1.70;;
15063;SDS011;7631;52.088;5.088;2023-03-14T06:10:59;3.97;;;1.87;;
15063;SDS011;7631;52.088;5.088;2023-03-14T06:13:24;4.63;;;2.20;;
15063;SDS011;7631;52.088;5.088;2023-03-14T06:15:50;3.30;;;1.97;;
15063;SDS011;7631;52.088;5.088;2023-03-14T06:18:15;3.00;;;1.93;;
15063;SDS011;7631;52.088;5.088;2023-03-14T06:20:40;2.63;;;1.83;;
15063;SDS011;7631;52.088;5.088;2023-03-14T06:23:06;4.40;;;2.40;;
15063;SDS011;7631;52.088;5.088;2023-03-14T06:25:31;5.77;;;2.30;;
15063;SDS011;7631;52.088;5.088;2023-03-14T06:27:57;4.03;;;1.90;;
15063;SDS011;7631;52.088;5.088;2023-03-14T06:30:22;3.70;;;1.90;;
15063;SDS011;7631;52.088;5.088;2023-03-14T06:32:47;3.77;;;1.97;;
15063;SDS011;7631;52.088;5.088;2023-03-14T06:35:12;3.70;;;1.70;;
15063;SDS011;7631;52.088;5.088;2023-03-14T06:37:37;3.17;;;2.00;;
15063;SDS011;7631;52.088;5.088;2023-03-14T06:40:03;3.23;;;1.90;;
15063;SDS011;7631;52.088;5.088;2023-03-14T06:42:30;3.90;;;1.93;;
15063;SDS011;7631;52.088;5.088;2023-03-14T06:44:55;4.43;;;2.17;;
15063;SDS011;7631;52.088;5.088;2023-03-14T06:47:20;5.33;;;2.17;;
15063;SDS011;7631;52.088;5.088;2023-03-14T06:49:45;4.70;;;1.90;;
15063;SDS011;7631;52.088;5.088;2023-03-14T06:52:10;4.70;;;2.13;;
15063;SDS011;7631;52.088;5.088;2023-03-14T06:54:36;3.23;;;1.77;;
15063;SDS011;7631;52.088;5.088;2023-03-14T06:57:01;3.93;;;1.77;;
15063;SDS011;7631;52.088;5.088;2023-03-14T06:59:26;5.00;;;2.20;;
15063;SDS011;7631;52.088;5.088;2023-03-14T07:01:51;4.50;;;1.93;;
15063;SDS011;7631;52.088;5.088;2023-03-14T07:04:17;2.37;;;1.50;;
15063;SDS011;7631;52.088;5.088;2023-03-14T07:06:42;3.23;;;1.73;;
15063;SDS011;7631;52.088;5.088;2023-03-14T07:09:10;4.23;;;1.60;;
15063;SDS011;7631;52.088;5.088;2023-03-14T07:11:35;4.90;;;1.70;;
15063;SDS011;7631;52.088;5.088;2023-03-14T07:14:00;2.70;;;1.60;;
15063;SDS011;7631;52.088;5.088;2023-03-14T07:16:25;2.90;;;1.60;;
15063;SDS011;7631;52.088;5.088;2023-03-14T07:18:53;3.07;;;1.70;;
15063;SDS011;7631;52.088;5.088;2023-03-14T07:21:18;2.27;;;1.63;;
15063;SDS011;7631;52.088;5.088;2023-03-14T07:23:44;2.77;;;1.53;;
15063;SDS011;7631;52.088;5.088;2023-03-14T07:26:09;3.63;;;1.30;;
15063;SDS011;7631;52.088;5.088;2023-03-14T07:28:34;2.60;;;1.77;;
15063;SDS011;7631;52.088;5.088;2023-03-14T07:30:59;4.77;;;1.60;;
15063;SDS011;7631;52.088;5.088;2023-03-14T07:33:24;2.33;;;1.40;;
15063;SDS011;7631;52.088;5.088;2023-03-14T07:35:50;2.47;;;1.27;;
15063;SDS011;7631;52.088;5.088;2023-03-14T07:38:16;2.37;;;1.30;;
15063;SDS011;7631;52.088;5.088;2023-03-14T07:40:41;2.00;;;1.37;;
15063;SDS011;7631;52.088;5.088;2023-03-14T07:43:06;2.87;;;1.70;;
15063;SDS011;7631;52.088;5.088;2023-03-14T07:45:31;3.33;;;1.40;;
15063;SDS011;7631;52.088;5.088;2023-03-14T07:47:56;3.00;;;1.70;;
15063;SDS011;7631;52.088;5.088;2023-03-14T07:50:23;4.00;;;1.70;;
15063;SDS011;7631;52.088;5.088;2023-03-14T07:52:48;3.17;;;1.60;;
15063;SDS011;7631;52.088;5.088;2023-03-14T07:55:14;4.30;;;1.37;;
15063;SDS011;7631;52.088;5.088;2023-03-14T07:57:39;3.80;;;1.50;;
15063;SDS011;7631;52.088;5.088;2023-03-14T08:00:04;2.47;;;1.30;;
15063;SDS011;7631;52.088;5.088;2023-03-14T08:02:30;2.67;;;1.60;;
15063;SDS011;7631;52.088;5.088;2023-03-14T08:04:55;2.33;;;1.20;;
15063;SDS011;7631;52.088;5.088;2023-03-14T08:07:20;2.93;;;1.40;;
15063;SDS011;7631;52.088;5.088;2023-03-14T08:09:45;3.07;;;1.40;;
15063;SDS011;7631;52.088;5.088;2023-03-14T08:12:11;4.33;;;1.40;;
15063;SDS011;7631;52.088;5.088;2023-03-14T08:14:36;2.17;;;1.40;;
15063;SDS011;7631;52.088;5.088;2023-03-14T08:17:01;3.50;;;1.50;;
15063;SDS011;7631;52.088;5.088;2023-03-14T08:19:26;2.90;;;1.20;;
15063;SDS011;7631;52.088;5.088;2023-03-14T08:21:52;3.10;;;1.37;;
15063;SDS011;7631;52.088;5.088;2023-03-14T08:24:17;1.83;;;1.10;;
15063;SDS011;7631;52.088;5.088;2023-03-14T08:26:42;3.83;;;1.60;;
15063;SDS011;7631;52.088;5.088;2023-03-14T08:29:08;3.60;;;1.40;;
15063;SDS011;7631;52.088;5.088;2023-03-14T08:31:36;1.50;;;1.10;;
15063;SDS011;7631;52.088;5.088;2023-03-14T08:34:02;3.07;;;1.20;;
15063;SDS011;7631;52.088;5.088;2023-03-14T08:36:27;1.97;;;1.00;;
15063;SDS011;7631;52.088;5.088;2023-03-14T08:38:52;2.13;;;1.30;;
15063;SDS011;7631;52.088;5.088;2023-03-14T08:41:17;2.93;;;1.20;;
15063;SDS011;7631;52.088;5.088;2023-03-14T08:43:43;2.97;;;1.20;;
15063;SDS011;7631;52.088;5.088;2023-03-14T08:46:08;2.60;;;1.00;;
15063;SDS011;7631;52.088;5.088;2023-03-14T08:48:33;1.90;;;0.93;;
15063;SDS011;7631;52.088;5.088;2023-03-14T08:51:06;3.60;;;1.10;;
15063;SDS011;7631;52.088;5.088;2023-03-14T08:53:31;3.30;;;1.00;;
15063;SDS011;7631;52.088;5.088;2023-03-14T08:55:56;2.83;;;1.00;;
15063;SDS011;7631;52.088;5.088;2023-03-14T08:58:22;2.30;;;0.90;;
15063;SDS011;7631;52.088;5.088;2023-03-14T09:00:48;2.77;;;0.90;;
15063;SDS011;7631;52.088;5.088;2023-03-14T09:03:13;3.43;;;0.70;;
15063;SDS011;7631;52.088;5.088;2023-03-14T09:05:39;2.23;;;0.80;;
15063;SDS011;7631;52.088;5.088;2023-03-14T09:08:05;2.37;;;0.90;;
15063;SDS011;7631;52.088;5.088;2023-03-14T09:10:30;2.17;;;0.83;;
15063;SDS011;7631;52.088;5.088;2023-03-14T09:12:55;1.67;;;0.70;;
15063;SDS011;7631;52.088;5.088;2023-03-14T09:15:22;2.70;;;1.00;;
15063;SDS011;7631;52.088;5.088;2023-03-14T09:17:47;1.67;;;0.63;;
15063;SDS011;7631;52.088;5.088;2023-03-14T09:20:13;3.60;;;1.00;;
15063;SDS011;7631;52.088;5.088;2023-03-14T09:22:39;3.90;;;0.90;;
15063;SDS011;7631;52.088;5.088;2023-03-14T09:25:04;2.40;;;0.80;;
15063;SDS011;7631;52.088;5.088;2023-03-14T09:27:29;3.10;;;0.90;;
15063;SDS011;7631;52.088;5.088;2023-03-14T09:29:55;3.37;;;0.90;;
15063;SDS011;7631;52.088;5.088;2023-03-14T09:32:20;2.17;;;0.70;;
15063;SDS011;7631;52.088;5.088;2023-03-14T09:34:45;5.50;;;1.10;;
15063;SDS011;7631;52.088;5.088;2023-03-14T09:37:11;4.77;;;1.50;;
15063;SDS011;7631;52.088;5.088;2023-03-14T09:39:36;5.37;;;1.60;;
15063;SDS011;7631;52.088;5.088;2023-03-14T09:42:02;4.03;;;1.30;;
15063;SDS011;7631;52.088;5.088;2023-03-14T09:44:34;4.47;;;1.23;;
15063;SDS011;7631;52.088;5.088;2023-03-14T09:47:02;5.73;;;1.87;;
15063;SDS011;7631;52.088;5.088;2023-03-14T09:49:32;5.20;;;1.40;;
15063;SDS011;7631;52.088;5.088;2023-03-14T09:51:59;3.23;;;1.10;;
15063;SDS011;7631;52.088;5.088;2023-03-14T09:55:09;4.40;;;1.40;;
15063;SDS011;7631;52.088;5.088;2023-03-14T09:57:15;5.33;;;1.50;;
15063;SDS011;7631;52.088;5.088;2023-03-14T09:59:42;5.37;;;1.50;;
15063;SDS011;7631;52.088;5.088;2023-03-14T10:02:43;5.30;;;1.20;;
15063;SDS011;7631;52.088;5.088;2023-03-14T10:05:00;10.87;;;1.63;;
15063;SDS011;7631;52.088;5.088;2023-03-14T10:09:51;7.97;;;1.77;;
15063;SDS011;7631;52.088;5.088;2023-03-14T10:12:16;5.67;;;1.30;;
15063;SDS011;7631;52.088;5.088;2023-03-14T10:14:46;6.00;;;1.80;;
15063;SDS011;7631;52.088;5.088;2023-03-14T10:17:13;7.20;;;1.50;;
15063;SDS011;7631;52.088;5.088;2023-03-14T10:19:57;7.40;;;1.97;;
15063;SDS011;7631;52.088;5.088;2023-03-14T10:22:24;6.03;;;1.50;;
15063;SDS011;7631;52.088;5.088;2023-03-14T10:24:51;4.70;;;1.50;;
15063;SDS011;7631;52.088;5.088;2023-03-14T10:27:18;7.87;;;1.73;;
15063;SDS011;7631;52.088;5.088;2023-03-14T10:32:19;5.27;;;1.57;;
15063;SDS011;7631;52.088;5.088;2023-03-14T10:34:45;8.87;;;2.20;;
15063;SDS011;7631;52.088;5.088;2023-03-14T10:37:24;7.60;;;1.77;;
15063;SDS011;7631;52.088;5.088;2023-03-14T10:40:12;11.07;;;1.90;;
15063;SDS011;7631;52.088;5.088;2023-03-14T10:42:41;7.93;;;2.13;;
15063;SDS011;7631;52.088;5.088;2023-03-14T10:47:49;6.23;;;1.70;;
15063;SDS011;7631;52.088;5.088;2023-03-14T10:50:23;8.13;;;1.47;;
15063;SDS011;7631;52.088;5.088;2023-03-14T10:52:48;7.87;;;2.20;;
15063;SDS011;7631;52.088;5.088;2023-03-14T10:55:14;8.80;;;2.00;;
15063;SDS011;7631;52.088;5.088;2023-03-14T10:57:42;8.23;;;2.10;;
15063;SDS011;7631;52.088;5.088;2023-03-14T11:00:15;7.10;;;2.00;;
15063;SDS011;7631;52.088;5.088;2023-03-14T11:02:45;11.33;;;2.33;;
15063;SDS011;7631;52.088;5.088;2023-03-14T11:05:21;6.37;;;1.63;;
15063;SDS011;7631;52.088;5.088;2023-03-14T11:07:50;10.20;;;1.50;;
15063;SDS011;7631;52.088;5.088;2023-03-14T11:15:30;6.57;;;1.80;;
15063;SDS011;7631;52.088;5.088;2023-03-14T11:20:49;7.47;;;2.00;;
15063;SDS011;7631;52.088;5.088;2023-03-14T11:23:23;7.73;;;2.13;;
15063;SDS011;7631;52.088;5.088;2023-03-14T11:38:37;8.90;;;2.13;;
15063;SDS011;7631;52.088;5.088;2023-03-14T11:40:59;7.80;;;2.30;;
15063;SDS011;7631;52.088;5.088;2023-03-14T11:43:32;9.83;;;2.37;;
15063;SDS011;7631;52.088;5.088;2023-03-14T11:46:08;7.60;;;1.93;;
15063;SDS011;7631;52.088;5.088;2023-03-14T11:51:24;8.07;;;1.87;;
15063;SDS011;7631;52.088;5.088;2023-03-14T11:53:53;8.43;;;2.27;;
15063;SDS011;7631;52.088;5.088;2023-03-14T11:59:27;8.07;;;2.17;;
15063;SDS011;7631;52.088;5.088;2023-03-14T12:07:07;7.77;;;2.00;;
15063;SDS011;7631;52.088;5.088;2023-03-14T12:09:34;6.90;;;1.77;;
15063;SDS011;7631;52.088;5.088;2023-03-14T12:12:00;7.83;;;2.00;;
15063;SDS011;7631;52.088;5.088;2023-03-14T12:14:27;9.30;;;2.53;;
15063;SDS011;7631;52.088;5.088;2023-03-14T12:16:55;8.73;;;1.90;;
15063;SDS011;7631;52.088;5.088;2023-03-14T12:21:54;4.73;;;1.70;;
15063;SDS011;7631;52.088;5.088;2023-03-14T12:24:22;6.97;;;1.93;;
15063;SDS011;7631;52.088;5.088;2023-03-14T12:26:52;10.63;;;1.93;;
15063;SDS011;7631;52.088;5.088;2023-03-14T12:29:18;6.43;;;1.90;;
15063;SDS011;7631;52.088;5.088;2023-03-14T12:32:21;7.67;;;2.33;;
15063;SDS011;7631;52.088;5.088;2023-03-14T12:34:41;5.40;;;1.80;;
15063;SDS011;7631;52.088;5.088;2023-03-14T12:37:12;7.50;;;1.77;;
15063;SDS011;7631;52.088;5.088;2023-03-14T12:49:38;8.60;;;1.90;;
15063;SDS011;7631;52.088;5.088;2023-03-14T12:52:10;3.87;;;1.43;;
15063;SDS011;7631;52.088;5.088;2023-03-14T12:54:40;7.03;;;2.00;;
15063;SDS011;7631;52.088;5.088;2023-03-14T12:58:10;3.80;;;1.30;;
15063;SDS011;7631;52.088;5.088;2023-03-14T13:00:29;5.43;;;1.80;;
15063;SDS011;7631;52.088;5.088;2023-03-14T13:02:48;4.77;;;1.50;;
15063;SDS011;7631;52.088;5.088;2023-03-14T13:05:18;5.30;;;1.63;;
15063;SDS011;7631;52.088;5.088;2023-03-14T13:12:51;5.60;;;1.43;;
15063;SDS011;7631;52.088;5.088;2023-03-14T13:17:47;5.87;;;1.47;;
15063;SDS011;7631;52.088;5.088;2023-03-14T13:21:02;3.93;;;1.30;;
15063;SDS011;7631;52.088;5.088;2023-03-14T13:23:22;4.67;;;1.33;;
15063;SDS011;7631;52.088;5.088;2023-03-14T13:25:47;5.50;;;1.50;;
15063;SDS011;7631;52.088;5.088;2023-03-14T13:28:13;7.17;;;1.37;;
15063;SDS011;7631;52.088;5.088;2023-03-14T13:30:41;4.67;;;1.60;;
15063;SDS011;7631;52.088;5.088;2023-03-14T13:33:06;7.17;;;2.03;;
15063;SDS011;7631;52.088;5.088;2023-03-14T13:35:40;5.13;;;1.40;;
15063;SDS011;7631;52.088;5.088;2023-03-14T13:38:13;5.30;;;1.37;;
15063;SDS011;7631;52.088;5.088;2023-03-14T13:40:39;6.30;;;1.87;;
15063;SDS011;7631;52.088;5.088;2023-03-14T13:43:12;5.07;;;1.30;;
15063;SDS011;7631;52.088;5.088;2023-03-14T13:45:52;6.30;;;1.37;;
15063;SDS011;7631;52.088;5.088;2023-03-14T13:48:18;4.27;;;1.30;;
15063;SDS011;7631;52.088;5.088;2023-03-14T13:50:50;7.00;;;1.67;;
15063;SDS011;7631;52.088;5.088;2023-03-14T13:53:16;5.57;;;1.87;;
15063;SDS011;7631;52.088;5.088;2023-03-14T13:55:42;4.57;;;1.77;;
15063;SDS011;7631;52.088;5.088;2023-03-14T13:58:11;5.13;;;1.33;;
15063;SDS011;7631;52.088;5.088;2023-03-14T14:00:38;5.73;;;1.30;;
15063;SDS011;7631;52.088;5.088;2023-03-14T14:03:03;6.40;;;1.53;;
15063;SDS011;7631;52.088;5.088;2023-03-14T14:05:28;4.00;;;1.30;;
15063;SDS011;7631;52.088;5.088;2023-03-14T14:07:54;5.30;;;1.40;;
15063;SDS011;7631;52.088;5.088;2023-03-14T14:10:20;4.93;;;1.50;;
15063;SDS011;7631;52.088;5.088;2023-03-14T14:15:19;6.53;;;1.63;;
15063;SDS011;7631;52.088;5.088;2023-03-14T14:17:55;5.83;;;1.40;;
15063;SDS011;7631;52.088;5.088;2023-03-14T14:22:51;6.53;;;2.13;;
15063;SDS011;7631;52.088;5.088;2023-03-14T14:25:17;5.90;;;1.70;;
15063;SDS011;7631;52.088;5.088;2023-03-14T14:27:43;6.57;;;1.70;;
15063;SDS011;7631;52.088;5.088;2023-03-14T14:32:38;5.60;;;1.63;;
15063;SDS011;7631;52.088;5.088;2023-03-14T14:35:05;4.93;;;1.33;;
15063;SDS011;7631;52.088;5.088;2023-03-14T14:37:32;5.40;;;1.50;;
15063;SDS011;7631;52.088;5.088;2023-03-14T14:39:59;4.30;;;1.33;;
15063;SDS011;7631;52.088;5.088;2023-03-14T14:42:26;4.90;;;1.53;;
15063;SDS011;7631;52.088;5.088;2023-03-14T14:44:52;4.43;;;1.47;;
15063;SDS011;7631;52.088;5.088;2023-03-14T14:47:18;4.90;;;1.57;;
15063;SDS011;7631;52.088;5.088;2023-03-14T14:49:44;6.70;;;1.43;;
15063;SDS011;7631;52.088;5.088;2023-03-14T14:52:17;4.20;;;1.53;;
15063;SDS011;7631;52.088;5.088;2023-03-14T14:54:44;5.53;;;1.60;;
15063;SDS011;7631;52.088;5.088;2023-03-14T14:57:21;6.67;;;1.60;;
15063;SDS011;7631;52.088;5.088;2023-03-14T14:59:48;5.90;;;1.47;;
15063;SDS011;7631;52.088;5.088;2023-03-14T15:04:57;4.13;;;1.20;;
15063;SDS011;7631;52.088;5.088;2023-03-14T15:07:22;4.07;;;1.30;;
15063;SDS011;7631;52.088;5.088;2023-03-14T15:09:48;3.87;;;1.40;;
15063;SDS011;7631;52.088;5.088;2023-03-14T15:12:13;2.83;;;1.73;;
15063;SDS011;7631;52.088;5.088;2023-03-14T15:14:38;4.00;;;1.40;;
15063;SDS011;7631;52.088;5.088;2023-03-14T15:17:05;2.80;;;1.20;;
15063;SDS011;7631;52.088;5.088;2023-03-14T15:19:31;3.17;;;1.20;;
15063;SDS011;7631;52.088;5.088;2023-03-14T15:21:58;5.60;;;1.17;;
15063;SDS011;7631;52.088;5.088;2023-03-14T15:24:23;4.83;;;1.73;;
15063;SDS011;7631;52.088;5.088;2023-03-14T15:26:48;6.47;;;1.50;;
15063;SDS011;7631;52.088;5.088;2023-03-14T15:29:14;3.13;;;1.27;;
15063;SDS011;7631;52.088;5.088;2023-03-14T15:31:40;3.93;;;1.40;;
15063;SDS011;7631;52.088;5.088;2023-03-14T15:34:05;3.93;;;1.20;;
15063;SDS011;7631;52.088;5.088;2023-03-14T15:36:32;4.73;;;1.40;;
15063;SDS011;7631;52.088;5.088;2023-03-14T15:38:57;3.03;;;1.20;;
15063;SDS011;7631;52.088;5.088;2023-03-14T15:41:24;3.73;;;1.43;;
15063;SDS011;7631;52.088;5.088;2023-03-14T15:43:49;4.37;;;1.20;;
15063;SDS011;7631;52.088;5.088;2023-03-14T15:46:15;2.70;;;1.03;;
15063;SDS011;7631;52.088;5.088;2023-03-14T15:48:42;4.87;;;1.30;;
15063;SDS011;7631;52.088;5.088;2023-03-14T15:51:07;6.97;;;1.40;;
15063;SDS011;7631;52.088;5.088;2023-03-14T15:53:32;5.83;;;1.40;;
15063;SDS011;7631;52.088;5.088;2023-03-14T15:55:57;5.57;;;1.30;;
15063;SDS011;7631;52.088;5.088;2023-03-14T15:58:23;5.50;;;1.40;;
15063;SDS011;7631;52.088;5.088;2023-03-14T16:00:48;5.47;;;1.53;;
15063;SDS011;7631;52.088;5.088;2023-03-14T16:03:14;6.23;;;1.20;;
15063;SDS011;7631;52.088;5.088;2023-03-14T16:05:39;7.00;;;1.53;;
15063;SDS011;7631;52.088;5.088;2023-03-14T16:08:05;4.07;;;1.47;;
15063;SDS011;7631;52.088;5.088;2023-03-14T16:10:30;3.33;;;1.13;;
15063;SDS011;7631;52.088;5.088;2023-03-14T16:12:56;5.53;;;1.57;;